Station Historical Data
Daily Summary for May 13, 2017 Units:  Both    English   Metric
« Previous Day
Next Day »
Daily Weekly Monthly Yearly Custom
  High: Low: Average:
Temperature: 61.0 °F /  16.1 °C 50.4 °F /  10.2 °C 55.6 °F /  13.1 °C
Dew Point: 49.3 °F /  9.6 °C 43.4 °F /  6.3 °C 45.5 °F /  7.5 °C
Humidity: 78% 58% 69%
Wind Speed: 9.0mph /  14.5km/h - 2.5mph /  4km/h
Wind Gust: 12.0mph /  19.3km/h - -
Wind- - SW
Pressure: 29.90 in /  1012.4 hPa 29.77 in /  1008 hPa -
Precipitation: 0.00 in /  0 mm    
Historical Graphs
 
 
Tabular Data for May 13, 2017
Time Temperature Dew Point Pressure Wind Wind Speed Wind Gust Humidity Rainfall Rate (Hourly)
00:04 55.0 °F /  12.8 °C 43.8 °F /  6.6 °C 29.90in /  1012.4hPa South 1.0mph /  1.6km/h 4.0mph /  6.4km/h 66% 0.00in /  0mm
00:09 55.0 °F /  12.8 °C 43.8 °F /  6.6 °C 29.89in /  1012.1hPa Calm   3.0mph /  4.8km/h 66% 0.00in /  0mm
00:14 55.1 °F /  12.8 °C 43.5 °F /  6.4 °C 29.90in /  1012.4hPa South 1.0mph /  1.6km/h 4.0mph /  6.4km/h 65% 0.00in /  0mm
00:19 55.1 °F /  12.8 °C 43.5 °F /  6.4 °C 29.90in /  1012.4hPa South 1.0mph /  1.6km/h 4.0mph /  6.4km/h 65% 0.00in /  0mm
00:24 55.1 °F /  12.8 °C 43.5 °F /  6.4 °C 29.90in /  1012.4hPa South 2.0mph /  3.2km/h 3.0mph /  4.8km/h 65% 0.00in /  0mm
00:29 55.0 °F /  12.8 °C 43.4 °F /  6.3 °C 29.90in /  1012.4hPa Calm   4.0mph /  6.4km/h 65% 0.00in /  0mm
00:34 55.0 °F /  12.8 °C 43.4 °F /  6.3 °C 29.90in /  1012.4hPa South 1.0mph /  1.6km/h 4.0mph /  6.4km/h 65% 0.00in /  0mm
00:39 55.0 °F /  12.8 °C 43.4 °F /  6.3 °C 29.90in /  1012.4hPa South 2.0mph /  3.2km/h 3.0mph /  4.8km/h 65% 0.00in /  0mm
00:44 54.9 °F /  12.7 °C 43.7 °F /  6.5 °C 29.89in /  1012.1hPa South 1.0mph /  1.6km/h 3.0mph /  4.8km/h 66% 0.00in /  0mm
00:49 54.8 °F /  12.7 °C 43.7 °F /  6.5 °C 29.89in /  1012.1hPa South 1.0mph /  1.6km/h 5.0mph /  8km/h 66% 0.00in /  0mm
00:54 54.9 °F /  12.7 °C 43.7 °F /  6.5 °C 29.89in /  1012.1hPa South 2.0mph /  3.2km/h 5.0mph /  8km/h 66% 0.00in /  0mm
00:59 54.8 °F /  12.7 °C 44.0 °F /  6.7 °C 29.89in /  1012.1hPa South 1.0mph /  1.6km/h 3.0mph /  4.8km/h 67% 0.00in /  0mm
01:04 54.7 °F /  12.6 °C 43.6 °F /  6.4 °C 29.89in /  1012.1hPa South 1.0mph /  1.6km/h 3.0mph /  4.8km/h 66% 0.00in /  0mm
01:09 54.7 °F /  12.6 °C 44.0 °F /  6.7 °C 29.89in /  1012.1hPa South 1.0mph /  1.6km/h 3.0mph /  4.8km/h 67% 0.00in /  0mm
01:14 54.7 °F /  12.6 °C 44.0 °F /  6.7 °C 29.89in /  1012.1hPa Calm   1.0mph /  1.6km/h 67% 0.00in /  0mm
01:19 54.6 °F /  12.6 °C 43.9 °F /  6.6 °C 29.89in /  1012.1hPa Calm   3.0mph /  4.8km/h 67% 0.00in /  0mm
01:24 54.6 °F /  12.6 °C 43.9 °F /  6.6 °C 29.89in /  1012.1hPa Calm   3.0mph /  4.8km/h 67% 0.00in /  0mm
01:29 54.5 °F /  12.5 °C 43.8 °F /  6.6 °C 29.89in /  1012.1hPa Calm     67% 0.00in /  0mm
01:34 54.5 °F /  12.5 °C 44.2 °F /  6.8 °C 29.89in /  1012.1hPa Calm   3.0mph /  4.8km/h 68% 0.00in /  0mm
01:39 54.4 °F /  12.4 °C 44.1 °F /  6.7 °C 29.89in /  1012.1hPa Calm   2.0mph /  3.2km/h 68% 0.00in /  0mm
01:44 54.3 °F /  12.4 °C 44.0 °F /  6.7 °C 29.89in /  1012.1hPa Calm     68% 0.00in /  0mm
01:49 54.1 °F /  12.3 °C 43.8 °F /  6.6 °C 29.89in /  1012.1hPa Calm     68% 0.00in /  0mm
01:54 54.2 °F /  12.3 °C 44.2 °F /  6.8 °C 29.88in /  1011.7hPa Calm     69% 0.00in /  0mm
01:59 54.1 °F /  12.3 °C 44.2 °F /  6.8 °C 29.88in /  1011.7hPa Calm     69% 0.00in /  0mm
02:04 54.1 °F /  12.3 °C 44.2 °F /  6.8 °C 29.88in /  1011.7hPa Calm   2.0mph /  3.2km/h 69% 0.00in /  0mm
02:09 53.9 °F /  12.2 °C 44.0 °F /  6.7 °C 29.88in /  1011.7hPa South 1.0mph /  1.6km/h 3.0mph /  4.8km/h 69% 0.00in /  0mm
02:14 53.9 °F /  12.2 °C 44.0 °F /  6.7 °C 29.88in /  1011.7hPa South 1.0mph /  1.6km/h 3.0mph /  4.8km/h 69% 0.00in /  0mm
02:19 53.8 °F /  12.1 °C 44.2 °F /  6.8 °C 29.88in /  1011.7hPa South 1.0mph /  1.6km/h 3.0mph /  4.8km/h 70% 0.00in /  0mm
02:24 53.8 °F /  12.1 °C 44.2 °F /  6.8 °C 29.88in /  1011.7hPa South 1.0mph /  1.6km/h 4.0mph /  6.4km/h 70% 0.00in /  0mm
02:29 53.7 °F /  12.1 °C 44.1 °F /  6.7 °C 29.88in /  1011.7hPa South 1.0mph /  1.6km/h 4.0mph /  6.4km/h 70% 0.00in /  0mm
02:34 53.6 °F /  12 °C 44.0 °F /  6.7 °C 29.88in /  1011.7hPa Calm   2.0mph /  3.2km/h 70% 0.00in /  0mm
02:39 53.6 °F /  12 °C 44.4 °F /  6.9 °C 29.88in /  1011.7hPa South 1.0mph /  1.6km/h 2.0mph /  3.2km/h 71% 0.00in /  0mm
02:44 53.5 °F /  11.9 °C 44.3 °F /  6.8 °C 29.87in /  1011.4hPa Calm   2.0mph /  3.2km/h 71% 0.00in /  0mm
02:49 53.6 °F /  12 °C 44.4 °F /  6.9 °C 29.87in /  1011.4hPa Calm   3.0mph /  4.8km/h 71% 0.00in /  0mm
02:54 53.5 °F /  11.9 °C 44.3 °F /  6.8 °C 29.87in /  1011.4hPa Calm   3.0mph /  4.8km/h 71% 0.00in /  0mm
02:59 53.5 °F /  11.9 °C 44.3 °F /  6.8 °C 29.87in /  1011.4hPa Calm   1.0mph /  1.6km/h 71% 0.00in /  0mm
03:04 53.5 °F /  11.9 °C 44.3 °F /  6.8 °C 29.87in /  1011.4hPa SSW 2.0mph /  3.2km/h 2.0mph /  3.2km/h 71% 0.00in /  0mm
03:09 53.4 °F /  11.9 °C 44.2 °F /  6.8 °C 29.87in /  1011.4hPa Calm   2.0mph /  3.2km/h 71% 0.00in /  0mm
03:14 53.4 °F /  11.9 °C 44.2 °F /  6.8 °C 29.87in /  1011.4hPa Calm     71% 0.00in /  0mm
03:19 53.4 °F /  11.9 °C 44.2 °F /  6.8 °C 29.87in /  1011.4hPa Calm   2.0mph /  3.2km/h 71% 0.00in /  0mm
03:24 53.4 °F /  11.9 °C 44.2 °F /  6.8 °C 29.87in /  1011.4hPa Calm   2.0mph /  3.2km/h 71% 0.00in /  0mm
03:29 53.3 °F /  11.8 °C 44.1 °F /  6.7 °C 29.87in /  1011.4hPa South 1.0mph /  1.6km/h 3.0mph /  4.8km/h 71% 0.00in /  0mm
03:34 53.3 °F /  11.8 °C 44.1 °F /  6.7 °C 29.87in /  1011.4hPa South 1.0mph /  1.6km/h 3.0mph /  4.8km/h 71% 0.00in /  0mm
03:39 53.3 °F /  11.8 °C 44.5 °F /  6.9 °C 29.87in /  1011.4hPa South 1.0mph /  1.6km/h 3.0mph /  4.8km/h 72% 0.00in /  0mm
03:44 53.3 °F /  11.8 °C 44.5 °F /  6.9 °C 29.87in /  1011.4hPa South 1.0mph /  1.6km/h 3.0mph /  4.8km/h 72% 0.00in /  0mm
03:49 53.2 °F /  11.8 °C 44.4 °F /  6.9 °C 29.87in /  1011.4hPa SSW 3.0mph /  4.8km/h 5.0mph /  8km/h 72% 0.00in /  0mm
03:54 53.2 °F /  11.8 °C 44.8 °F /  7.1 °C 29.87in /  1011.4hPa SSW 2.0mph /  3.2km/h 4.0mph /  6.4km/h 73% 0.00in /  0mm
03:59 53.2 °F /  11.8 °C 44.8 °F /  7.1 °C 29.87in /  1011.4hPa SSW 1.0mph /  1.6km/h 3.0mph /  4.8km/h 73% 0.00in /  0mm
04:04 53.2 °F /  11.8 °C 44.8 °F /  7.1 °C 29.87in /  1011.4hPa Calm   5.0mph /  8km/h 73% 0.00in /  0mm
04:09 53.2 °F /  11.8 °C 44.8 °F /  7.1 °C 29.86in /  1011.1hPa SSE 2.0mph /  3.2km/h 6.0mph /  9.7km/h 73% 0.00in /  0mm
04:14 53.1 °F /  11.7 °C 44.7 °F /  7.1 °C 29.86in /  1011.1hPa SSE 3.0mph /  4.8km/h 6.0mph /  9.7km/h 73% 0.00in /  0mm
04:19 53.1 °F /  11.7 °C 45.0 °F /  7.2 °C 29.86in /  1011.1hPa SSE 2.0mph /  3.2km/h 5.0mph /  8km/h 74% 0.00in /  0mm
04:24 53.1 °F /  11.7 °C 45.0 °F /  7.2 °C 29.86in /  1011.1hPa SSE 1.0mph /  1.6km/h 4.0mph /  6.4km/h 74% 0.00in /  0mm
04:29 53.0 °F /  11.7 °C 44.9 °F /  7.2 °C 29.86in /  1011.1hPa South 2.0mph /  3.2km/h 5.0mph /  8km/h 74% 0.00in /  0mm
04:34 53.0 °F /  11.7 °C 44.9 °F /  7.2 °C 29.86in /  1011.1hPa SSE 1.0mph /  1.6km/h 5.0mph /  8km/h 74% 0.00in /  0mm
04:39 52.9 °F /  11.6 °C 44.8 °F /  7.1 °C 29.86in /  1011.1hPa SSE 2.0mph /  3.2km/h 3.0mph /  4.8km/h 74% 0.00in /  0mm
04:44 52.8 °F /  11.6 °C 45.1 °F /  7.3 °C 29.86in /  1011.1hPa SSE 1.0mph /  1.6km/h 5.0mph /  8km/h 75% 0.00in /  0mm
04:49 52.8 °F /  11.6 °C 45.1 °F /  7.3 °C 29.86in /  1011.1hPa South 2.0mph /  3.2km/h 5.0mph /  8km/h 75% 0.00in /  0mm
04:54 52.8 °F /  11.6 °C 45.1 °F /  7.3 °C 29.86in /  1011.1hPa SSE 2.0mph /  3.2km/h 6.0mph /  9.7km/h 75% 0.00in /  0mm
04:59 52.8 °F /  11.6 °C 45.1 °F /  7.3 °C 29.86in /  1011.1hPa SSE 1.0mph /  1.6km/h 5.0mph /  8km/h 75% 0.00in /  0mm
05:04 52.7 °F /  11.5 °C 45.3 °F /  7.4 °C 29.86in /  1011.1hPa SSE 1.0mph /  1.6km/h 3.0mph /  4.8km/h 76% 0.00in /  0mm
05:09 52.6 °F /  11.4 °C 45.2 °F /  7.3 °C 29.86in /  1011.1hPa Calm   3.0mph /  4.8km/h 76% 0.00in /  0mm
05:14 52.6 °F /  11.4 °C 45.2 °F /  7.3 °C 29.86in /  1011.1hPa SSE 1.0mph /  1.6km/h 5.0mph /  8km/h 76% 0.00in /  0mm
05:19 52.5 °F /  11.4 °C 45.2 °F /  7.3 °C 29.86in /  1011.1hPa SSE 2.0mph /  3.2km/h 5.0mph /  8km/h 76% 0.00in /  0mm
05:24 52.5 °F /  11.4 °C 45.2 °F /  7.3 °C 29.86in /  1011.1hPa SSE 2.0mph /  3.2km/h 4.0mph /  6.4km/h 76% 0.00in /  0mm
05:29 52.4 °F /  11.3 °C 45.1 °F /  7.3 °C 29.86in /  1011.1hPa SSE 2.0mph /  3.2km/h 4.0mph /  6.4km/h 76% 0.00in /  0mm
05:34 52.4 °F /  11.3 °C 45.1 °F /  7.3 °C 29.86in /  1011.1hPa SSE 2.0mph /  3.2km/h 5.0mph /  8km/h 76% 0.00in /  0mm
05:39 52.4 °F /  11.3 °C 45.1 °F /  7.3 °C 29.86in /  1011.1hPa Calm   4.0mph /  6.4km/h 76% 0.00in /  0mm
05:44 52.4 °F /  11.3 °C 45.4 °F /  7.4 °C 29.86in /  1011.1hPa SSE 1.0mph /  1.6km/h 4.0mph /  6.4km/h 77% 0.00in /  0mm
05:49 52.3 °F /  11.3 °C 45.3 °F /  7.4 °C 29.86in /  1011.1hPa SE 1.0mph /  1.6km/h 4.0mph /  6.4km/h 77% 0.00in /  0mm
05:54 52.3 °F /  11.3 °C 45.3 °F /  7.4 °C 29.86in /  1011.1hPa SSE 1.0mph /  1.6km/h 4.0mph /  6.4km/h 77% 0.00in /  0mm
05:59 52.2 °F /  11.2 °C 45.2 °F /  7.3 °C 29.86in /  1011.1hPa South 3.0mph /  4.8km/h 3.0mph /  4.8km/h 77% 0.00in /  0mm
06:04 52.3 °F /  11.3 °C 45.3 °F /  7.4 °C 29.86in /  1011.1hPa South 1.0mph /  1.6km/h 3.0mph /  4.8km/h 77% 0.00in /  0mm
06:09 52.2 °F /  11.2 °C 45.2 °F /  7.3 °C 29.86in /  1011.1hPa South 2.0mph /  3.2km/h 5.0mph /  8km/h 77% 0.00in /  0mm
06:14 52.1 °F /  11.2 °C 45.1 °F /  7.3 °C 29.86in /  1011.1hPa South 2.0mph /  3.2km/h 5.0mph /  8km/h 77% 0.00in /  0mm
06:19 52.2 °F /  11.2 °C 45.2 °F /  7.3 °C 29.86in /  1011.1hPa SSE 1.0mph /  1.6km/h 5.0mph /  8km/h 77% 0.00in /  0mm
06:24 52.3 °F /  11.3 °C 45.3 °F /  7.4 °C 29.86in /  1011.1hPa SSE 2.0mph /  3.2km/h 4.0mph /  6.4km/h 77% 0.00in /  0mm
06:29 52.2 °F /  11.2 °C 45.2 °F /  7.3 °C 29.87in /  1011.4hPa SSE 1.0mph /  1.6km/h 3.0mph /  4.8km/h 77% 0.00in /  0mm
06:34 52.3 °F /  11.3 °C 45.3 °F /  7.4 °C 29.87in /  1011.4hPa Calm   5.0mph /  8km/h 77% 0.00in /  0mm
06:39 52.2 °F /  11.2 °C 45.2 °F /  7.3 °C 29.87in /  1011.4hPa SSE 1.0mph /  1.6km/h 5.0mph /  8km/h 77% 0.00in /  0mm
06:44 52.2 °F /  11.2 °C 45.2 °F /  7.3 °C 29.87in /  1011.4hPa Calm   3.0mph /  4.8km/h 77% 0.00in /  0mm
06:49 52.2 °F /  11.2 °C 45.2 °F /  7.3 °C 29.87in /  1011.4hPa SSE 1.0mph /  1.6km/h 3.0mph /  4.8km/h 77% 0.00in /  0mm
06:54 52.3 °F /  11.3 °C 45.3 °F /  7.4 °C 29.87in /  1011.4hPa SSE 1.0mph /  1.6km/h 3.0mph /  4.8km/h 77% 0.00in /  0mm
06:59 52.3 °F /  11.3 °C 45.6 °F /  7.6 °C 29.87in /  1011.4hPa South 2.0mph /  3.2km/h 5.0mph /  8km/h 78% 0.00in /  0mm
07:04 52.4 °F /  11.3 °C 45.7 °F /  7.6 °C 29.87in /  1011.4hPa South 2.0mph /  3.2km/h 5.0mph /  8km/h 78% 0.00in /  0mm
07:09 52.4 °F /  11.3 °C 45.7 °F /  7.6 °C 29.87in /  1011.4hPa SSW 1.0mph /  1.6km/h 4.0mph /  6.4km/h 78% 0.00in /  0mm
07:14 52.4 °F /  11.3 °C 45.7 °F /  7.6 °C 29.87in /  1011.4hPa South 1.0mph /  1.6km/h 4.0mph /  6.4km/h 78% 0.00in /  0mm
07:19 52.4 °F /  11.3 °C 45.7 °F /  7.6 °C 29.87in /  1011.4hPa Calm   5.0mph /  8km/h 78% 0.00in /  0mm
07:24 52.4 °F /  11.3 °C 45.7 °F /  7.6 °C 29.87in /  1011.4hPa South 1.0mph /  1.6km/h 5.0mph /  8km/h 78% 0.00in /  0mm
07:29 52.5 °F /  11.4 °C 45.8 °F /  7.7 °C 29.87in /  1011.4hPa Calm   1.0mph /  1.6km/h 78% 0.00in /  0mm
07:34 52.6 °F /  11.4 °C 45.6 °F /  7.6 °C 29.87in /  1011.4hPa SSW 3.0mph /  4.8km/h 4.0mph /  6.4km/h 77% 0.00in /  0mm
07:39 52.7 °F /  11.5 °C 46.0 °F /  7.8 °C 29.87in /  1011.4hPa SSW 1.0mph /  1.6km/h 4.0mph /  6.4km/h 78% 0.00in /  0mm
07:44 52.8 °F /  11.6 °C 45.8 °F /  7.7 °C 29.87in /  1011.4hPa SSW 1.0mph /  1.6km/h 4.0mph /  6.4km/h 77% 0.00in /  0mm
07:49 53.0 °F /  11.7 °C 46.0 °F /  7.8 °C 29.87in /  1011.4hPa SSW 1.0mph /  1.6km/h 4.0mph /  6.4km/h 77% 0.00in /  0mm
07:54 53.1 °F /  11.7 °C 46.1 °F /  7.8 °C 29.87in /  1011.4hPa SW 2.0mph /  3.2km/h 4.0mph /  6.4km/h 77% 0.00in /  0mm
07:59 53.2 °F /  11.8 °C 46.2 °F /  7.9 °C 29.87in /  1011.4hPa SSW 3.0mph /  4.8km/h 6.0mph /  9.7km/h 77% 0.00in /  0mm
08:04 53.2 °F /  11.8 °C 46.2 °F /  7.9 °C 29.87in /  1011.4hPa SSW 2.0mph /  3.2km/h 6.0mph /  9.7km/h 77% 0.00in /  0mm
08:09 53.4 °F /  11.9 °C 46.4 °F /  8 °C 29.87in /  1011.4hPa SSW 2.0mph /  3.2km/h 6.0mph /  9.7km/h 77% 0.00in /  0mm
08:14 53.4 °F /  11.9 °C 46.4 °F /  8 °C 29.87in /  1011.4hPa SSW 2.0mph /  3.2km/h 5.0mph /  8km/h 77% 0.00in /  0mm
08:19 53.4 °F /  11.9 °C 46.4 °F /  8 °C 29.86in /  1011.1hPa South 3.0mph /  4.8km/h 6.0mph /  9.7km/h 77% 0.00in /  0mm
08:24 53.4 °F /  11.9 °C 46.4 °F /  8 °C 29.86in /  1011.1hPa South 3.0mph /  4.8km/h 6.0mph /  9.7km/h 77% 0.00in /  0mm
08:29 53.6 °F /  12 °C 46.6 °F /  8.1 °C 29.87in /  1011.4hPa SSW 1.0mph /  1.6km/h 4.0mph /  6.4km/h 77% 0.00in /  0mm
08:34 53.8 °F /  12.1 °C 46.8 °F /  8.2 °C 29.87in /  1011.4hPa SSW 2.0mph /  3.2km/h 6.0mph /  9.7km/h 77% 0.00in /  0mm
08:39 53.9 °F /  12.2 °C 46.9 °F /  8.3 °C 29.86in /  1011.1hPa South 4.0mph /  6.4km/h 6.0mph /  9.7km/h 77% 0.00in /  0mm
08:44 54.1 °F /  12.3 °C 47.0 °F /  8.3 °C 29.86in /  1011.1hPa South 2.0mph /  3.2km/h 6.0mph /  9.7km/h 77% 0.00in /  0mm
08:49 54.1 °F /  12.3 °C 46.7 °F /  8.2 °C 29.86in /  1011.1hPa SSW 2.0mph /  3.2km/h 6.0mph /  9.7km/h 76% 0.00in /  0mm
08:54 54.1 °F /  12.3 °C 46.7 °F /  8.2 °C 29.87in /  1011.4hPa SW 5.0mph /  8km/h 6.0mph /  9.7km/h 76% 0.00in /  0mm
08:59 54.1 °F /  12.3 °C 46.7 °F /  8.2 °C 29.87in /  1011.4hPa WSW 3.0mph /  4.8km/h 5.0mph /  8km/h 76% 0.00in /  0mm
09:04 54.1 °F /  12.3 °C 47.0 °F /  8.3 °C 29.87in /  1011.4hPa SW 3.0mph /  4.8km/h 7.0mph /  11.3km/h 77% 0.00in /  0mm
09:09 54.2 °F /  12.3 °C 47.1 °F /  8.4 °C 29.87in /  1011.4hPa SW 3.0mph /  4.8km/h 7.0mph /  11.3km/h 77% 0.00in /  0mm
09:14 54.3 °F /  12.4 °C 47.2 °F /  8.4 °C 29.87in /  1011.4hPa SSW 3.0mph /  4.8km/h 5.0mph /  8km/h 77% 0.00in /  0mm
09:19 54.4 °F /  12.4 °C 47.0 °F /  8.3 °C 29.87in /  1011.4hPa SSW 3.0mph /  4.8km/h 7.0mph /  11.3km/h 76% 0.00in /  0mm
09:24 54.4 °F /  12.4 °C 47.0 °F /  8.3 °C 29.87in /  1011.4hPa SW 2.0mph /  3.2km/h 7.0mph /  11.3km/h 76% 0.00in /  0mm
09:29 54.4 °F /  12.4 °C 47.0 °F /  8.3 °C 29.87in /  1011.4hPa Calm   3.0mph /  4.8km/h 76% 0.00in /  0mm
09:34 54.6 °F /  12.6 °C 46.8 °F /  8.2 °C 29.87in /  1011.4hPa SW 4.0mph /  6.4km/h 5.0mph /  8km/h 75% 0.00in /  0mm
09:39 54.6 °F /  12.6 °C 46.8 °F /  8.2 °C 29.87in /  1011.4hPa West 4.0mph /  6.4km/h 6.0mph /  9.7km/h 75% 0.00in /  0mm
09:44 54.6 °F /  12.6 °C 46.8 °F /  8.2 °C 29.87in /  1011.4hPa SSW 3.0mph /  4.8km/h 7.0mph /  11.3km/h 75% 0.00in /  0mm
09:49 54.7 °F /  12.6 °C 46.9 °F /  8.3 °C 29.87in /  1011.4hPa SW 3.0mph /  4.8km/h 5.0mph /  8km/h 75% 0.00in /  0mm
09:54 54.9 °F /  12.7 °C 47.1 °F /  8.4 °C 29.87in /  1011.4hPa SW 5.0mph /  8km/h 6.0mph /  9.7km/h 75% 0.00in /  0mm
09:59 54.9 °F /  12.7 °C 46.8 °F /  8.2 °C 29.87in /  1011.4hPa SW 3.0mph /  4.8km/h 7.0mph /  11.3km/h 74% 0.00in /  0mm
10:04 55.0 °F /  12.8 °C 46.9 °F /  8.3 °C 29.87in /  1011.4hPa WSW 3.0mph /  4.8km/h 7.0mph /  11.3km/h 74% 0.00in /  0mm
10:09 55.0 °F /  12.8 °C 47.2 °F /  8.4 °C 29.87in /  1011.4hPa WSW 3.0mph /  4.8km/h 7.0mph /  11.3km/h 75% 0.00in /  0mm
10:14 54.9 °F /  12.7 °C 46.8 °F /  8.2 °C 29.88in /  1011.7hPa SW 4.0mph /  6.4km/h 8.0mph /  12.9km/h 74% 0.00in /  0mm
10:19 54.8 °F /  12.7 °C 46.7 °F /  8.2 °C 29.88in /  1011.7hPa SW 4.0mph /  6.4km/h 8.0mph /  12.9km/h 74% 0.00in /  0mm
10:24 54.7 °F /  12.6 °C 46.9 °F /  8.3 °C 29.88in /  1011.7hPa Calm   7.0mph /  11.3km/h 75% 0.00in /  0mm
10:29 54.8 °F /  12.7 °C 46.7 °F /  8.2 °C 29.87in /  1011.4hPa SSW 3.0mph /  4.8km/h 7.0mph /  11.3km/h 74% 0.00in /  0mm
10:34 55.1 °F /  12.8 °C 46.6 °F /  8.1 °C 29.87in /  1011.4hPa WSW 3.0mph /  4.8km/h 7.0mph /  11.3km/h 73% 0.00in /  0mm
10:39 55.3 °F /  12.9 °C 47.2 °F /  8.4 °C 29.87in /  1011.4hPa West 3.0mph /  4.8km/h 6.0mph /  9.7km/h 74% 0.00in /  0mm
10:44 55.3 °F /  12.9 °C 46.8 °F /  8.2 °C 29.87in /  1011.4hPa WSW 3.0mph /  4.8km/h 7.0mph /  11.3km/h 73% 0.00in /  0mm
10:49 55.8 °F /  13.2 °C 47.6 °F /  8.7 °C 29.87in /  1011.4hPa WSW 3.0mph /  4.8km/h 7.0mph /  11.3km/h 74% 0.00in /  0mm
10:54 56.0 °F /  13.3 °C 47.1 °F /  8.4 °C 29.87in /  1011.4hPa SW 3.0mph /  4.8km/h 8.0mph /  12.9km/h 72% 0.00in /  0mm
10:59 55.8 °F /  13.2 °C 46.9 °F /  8.3 °C 29.87in /  1011.4hPa SW 1.0mph /  1.6km/h 7.0mph /  11.3km/h 72% 0.00in /  0mm
11:04 56.2 °F /  13.4 °C 46.5 °F /  8.1 °C 29.87in /  1011.4hPa West 3.0mph /  4.8km/h 8.0mph /  12.9km/h 70% 0.00in /  0mm
11:09 57.8 °F /  14.3 °C 47.7 °F /  8.7 °C 29.87in /  1011.4hPa WSW 3.0mph /  4.8km/h 8.0mph /  12.9km/h 69% 0.00in /  0mm
11:14 58.2 °F /  14.6 °C 47.3 °F /  8.5 °C 29.87in /  1011.4hPa West 4.0mph /  6.4km/h 8.0mph /  12.9km/h 67% 0.00in /  0mm
11:19 57.7 °F /  14.3 °C 46.0 °F /  7.8 °C 29.87in /  1011.4hPa West 1.0mph /  1.6km/h 9.0mph /  14.5km/h 65% 0.00in /  0mm
11:24 57.7 °F /  14.3 °C 46.4 °F /  8 °C 29.86in /  1011.1hPa WSW 7.0mph /  11.3km/h 11.0mph /  17.7km/h 66% 0.00in /  0mm
11:29 57.7 °F /  14.3 °C 46.4 °F /  8 °C 29.86in /  1011.1hPa WSW 4.0mph /  6.4km/h 7.0mph /  11.3km/h 66% 0.00in /  0mm
11:34 58.2 °F /  14.6 °C 46.9 °F /  8.3 °C 29.86in /  1011.1hPa WSW 5.0mph /  8km/h 10.0mph /  16.1km/h 66% 0.00in /  0mm
11:39 57.2 °F /  14 °C 45.9 °F /  7.7 °C 29.86in /  1011.1hPa WSW 5.0mph /  8km/h 10.0mph /  16.1km/h 66% 0.00in /  0mm
11:44 56.8 °F /  13.8 °C 45.6 °F /  7.6 °C 29.86in /  1011.1hPa WSW 4.0mph /  6.4km/h 8.0mph /  12.9km/h 66% 0.00in /  0mm
11:49 56.4 °F /  13.6 °C 45.6 °F /  7.6 °C 29.86in /  1011.1hPa WSW 4.0mph /  6.4km/h 8.0mph /  12.9km/h 67% 0.00in /  0mm
11:54 56.5 °F /  13.6 °C 45.3 °F /  7.4 °C 29.86in /  1011.1hPa SW 5.0mph /  8km/h 7.0mph /  11.3km/h 66% 0.00in /  0mm
11:59 56.5 °F /  13.6 °C 45.7 °F /  7.6 °C 29.86in /  1011.1hPa WSW 5.0mph /  8km/h 10.0mph /  16.1km/h 67% 0.00in /  0mm
12:04 56.4 °F /  13.6 °C 45.6 °F /  7.6 °C 29.86in /  1011.1hPa SW 5.0mph /  8km/h 10.0mph /  16.1km/h 67% 0.00in /  0mm
12:09 56.5 °F /  13.6 °C 45.7 °F /  7.6 °C 29.86in /  1011.1hPa SW 5.0mph /  8km/h 8.0mph /  12.9km/h 67% 0.00in /  0mm
12:14 57.2 °F /  14 °C 46.7 °F /  8.2 °C 29.86in /  1011.1hPa SW 5.0mph /  8km/h 8.0mph /  12.9km/h 68% 0.00in /  0mm
12:19 58.6 °F /  14.8 °C 46.9 °F /  8.3 °C 29.85in /  1010.7hPa WSW 4.0mph /  6.4km/h 8.0mph /  12.9km/h 65% 0.00in /  0mm
12:24 59.4 °F /  15.2 °C 47.2 °F /  8.4 °C 29.85in /  1010.7hPa SW 3.0mph /  4.8km/h 8.0mph /  12.9km/h 64% 0.00in /  0mm
12:29 60.0 °F /  15.6 °C 46.9 °F /  8.3 °C 29.85in /  1010.7hPa SW 3.0mph /  4.8km/h 9.0mph /  14.5km/h 62% 0.00in /  0mm
12:34 60.0 °F /  15.6 °C 47.4 °F /  8.6 °C 29.85in /  1010.7hPa WSW 5.0mph /  8km/h 9.0mph /  14.5km/h 63% 0.00in /  0mm
12:39 59.7 °F /  15.4 °C 46.7 °F /  8.2 °C 29.85in /  1010.7hPa WSW 5.0mph /  8km/h 11.0mph /  17.7km/h 62% 0.00in /  0mm
12:44 60.7 °F /  15.9 °C 49.3 °F /  9.6 °C 29.85in /  1010.7hPa SW 7.0mph /  11.3km/h 9.0mph /  14.5km/h 66% 0.00in /  0mm
12:49 60.7 °F /  15.9 °C 47.2 °F /  8.4 °C 29.85in /  1010.7hPa WNW 3.0mph /  4.8km/h 12.0mph /  19.3km/h 61% 0.00in /  0mm
12:54 60.1 °F /  15.6 °C 46.2 °F /  7.9 °C 29.85in /  1010.7hPa WSW 3.0mph /  4.8km/h 10.0mph /  16.1km/h 60% 0.00in /  0mm
12:59 60.3 °F /  15.7 °C 46.4 °F /  8 °C 29.85in /  1010.7hPa WSW 4.0mph /  6.4km/h 7.0mph /  11.3km/h 60% 0.00in /  0mm
13:04 60.7 °F /  15.9 °C 46.7 °F /  8.2 °C 29.85in /  1010.7hPa WSW 4.0mph /  6.4km/h 8.0mph /  12.9km/h 60% 0.00in /  0mm
13:09 61.0 °F /  16.1 °C 47.4 °F /  8.6 °C 29.85in /  1010.7hPa SW 4.0mph /  6.4km/h 10.0mph /  16.1km/h 61% 0.00in /  0mm
13:14 60.8 °F /  16 °C 46.8 °F /  8.2 °C 29.85in /  1010.7hPa SW 4.0mph /  6.4km/h 10.0mph /  16.1km/h 60% 0.00in /  0mm
13:19 60.2 °F /  15.7 °C 46.3 °F /  7.9 °C 29.85in /  1010.7hPa SW 4.0mph /  6.4km/h 9.0mph /  14.5km/h 60% 0.00in /  0mm
13:24 59.6 °F /  15.3 °C 47.0 °F /  8.3 °C 29.85in /  1010.7hPa WSW 5.0mph /  8km/h 11.0mph /  17.7km/h 63% 0.00in /  0mm
13:29 59.5 °F /  15.3 °C 47.3 °F /  8.5 °C 29.85in /  1010.7hPa WSW 4.0mph /  6.4km/h 9.0mph /  14.5km/h 64% 0.00in /  0mm
13:34 59.8 °F /  15.4 °C 46.7 °F /  8.2 °C 29.85in /  1010.7hPa SW 4.0mph /  6.4km/h 9.0mph /  14.5km/h 62% 0.00in /  0mm
13:39 59.9 °F /  15.5 °C 46.4 °F /  8 °C 29.85in /  1010.7hPa SSW 4.0mph /  6.4km/h 11.0mph /  17.7km/h 61% 0.00in /  0mm
13:44 59.5 °F /  15.3 °C 46.5 °F /  8.1 °C 29.85in /  1010.7hPa SW 1.0mph /  1.6km/h 10.0mph /  16.1km/h 62% 0.00in /  0mm
13:49 59.5 °F /  15.3 °C 46.9 °F /  8.3 °C 29.85in /  1010.7hPa WSW 6.0mph /  9.7km/h 9.0mph /  14.5km/h 63% 0.00in /  0mm
13:54 59.4 °F /  15.2 °C 46.4 °F /  8 °C 29.84in /  1010.4hPa WSW 3.0mph /  4.8km/h 8.0mph /  12.9km/h 62% 0.00in /  0mm
13:59 59.4 °F /  15.2 °C 45.9 °F /  7.7 °C 29.84in /  1010.4hPa WSW 4.0mph /  6.4km/h 10.0mph /  16.1km/h 61% 0.00in /  0mm
14:04 59.1 °F /  15.1 °C 46.1 °F /  7.8 °C 29.84in /  1010.4hPa SW 5.0mph /  8km/h 10.0mph /  16.1km/h 62% 0.00in /  0mm
14:09 58.9 °F /  14.9 °C 46.3 °F /  7.9 °C 29.84in /  1010.4hPa SW 5.0mph /  8km/h 11.0mph /  17.7km/h 63% 0.00in /  0mm
14:14 58.8 °F /  14.9 °C 46.6 °F /  8.1 °C 29.84in /  1010.4hPa SW 5.0mph /  8km/h 11.0mph /  17.7km/h 64% 0.00in /  0mm
14:19 58.8 °F /  14.9 °C 46.6 °F /  8.1 °C 29.84in /  1010.4hPa SW 4.0mph /  6.4km/h 10.0mph /  16.1km/h 64% 0.00in /  0mm
14:24 58.9 °F /  14.9 °C 46.3 °F /  7.9 °C 29.84in /  1010.4hPa West 4.0mph /  6.4km/h 10.0mph /  16.1km/h 63% 0.00in /  0mm
14:29 59.0 °F /  15 °C 46.4 °F /  8 °C 29.84in /  1010.4hPa SW 4.0mph /  6.4km/h 10.0mph /  16.1km/h 63% 0.00in /  0mm
14:34 58.9 °F /  14.9 °C 46.3 °F /  7.9 °C 29.84in /  1010.4hPa WSW 6.0mph /  9.7km/h 11.0mph /  17.7km/h 63% 0.00in /  0mm
14:39 58.9 °F /  14.9 °C 46.7 °F /  8.2 °C 29.84in /  1010.4hPa SW 9.0mph /  14.5km/h 12.0mph /  19.3km/h 64% 0.00in /  0mm
14:44 58.8 °F /  14.9 °C 46.6 °F /  8.1 °C 29.84in /  1010.4hPa WNW 3.0mph /  4.8km/h 10.0mph /  16.1km/h 64% 0.00in /  0mm
14:49 58.6 °F /  14.8 °C 46.0 °F /  7.8 °C 29.83in /  1010hPa WSW 4.0mph /  6.4km/h 9.0mph /  14.5km/h 63% 0.00in /  0mm
14:54 58.5 °F /  14.7 °C 46.8 °F /  8.2 °C 29.83in /  1010hPa WSW 8.0mph /  12.9km/h 9.0mph /  14.5km/h 65% 0.00in /  0mm
14:59 58.3 °F /  14.6 °C 46.2 °F /  7.9 °C 29.83in /  1010hPa SW 4.0mph /  6.4km/h 8.0mph /  12.9km/h 64% 0.00in /  0mm
15:04 58.3 °F /  14.6 °C 47.0 °F /  8.3 °C 29.83in /  1010hPa WSW 4.0mph /  6.4km/h 8.0mph /  12.9km/h 66% 0.00in /  0mm
15:09 58.5 °F /  14.7 °C 47.2 °F /  8.4 °C 29.83in /  1010hPa SW 4.0mph /  6.4km/h 8.0mph /  12.9km/h 66% 0.00in /  0mm
15:14 58.6 °F /  14.8 °C 46.9 °F /  8.3 °C 29.83in /  1010hPa SSW 4.0mph /  6.4km/h 9.0mph /  14.5km/h 65% 0.00in /  0mm
15:19 59.3 °F /  15.2 °C 48.3 °F /  9.1 °C 29.83in /  1010hPa SW 3.0mph /  4.8km/h 8.0mph /  12.9km/h 67% 0.00in /  0mm
15:24 59.4 °F /  15.2 °C 47.6 °F /  8.7 °C 29.82in /  1009.7hPa WSW 3.0mph /  4.8km/h 9.0mph /  14.5km/h 65% 0.00in /  0mm
15:29 58.9 °F /  14.9 °C 47.2 °F /  8.4 °C 29.82in /  1009.7hPa WSW 6.0mph /  9.7km/h 9.0mph /  14.5km/h 65% 0.00in /  0mm
15:34 59.5 °F /  15.3 °C 47.7 °F /  8.7 °C 29.82in /  1009.7hPa WSW 5.0mph /  8km/h 9.0mph /  14.5km/h 65% 0.00in /  0mm
15:39 60.1 °F /  15.6 °C 47.5 °F /  8.6 °C 29.82in /  1009.7hPa WSW 5.0mph /  8km/h 10.0mph /  16.1km/h 63% 0.00in /  0mm
15:44 60.5 °F /  15.8 °C 48.3 °F /  9.1 °C 29.82in /  1009.7hPa SW 6.0mph /  9.7km/h 10.0mph /  16.1km/h 64% 0.00in /  0mm
15:49 60.4 °F /  15.8 °C 47.3 °F /  8.5 °C 29.82in /  1009.7hPa SW 6.0mph /  9.7km/h 10.0mph /  16.1km/h 62% 0.00in /  0mm
15:54 60.3 °F /  15.7 °C 46.8 °F /  8.2 °C 29.81in /  1009.4hPa SW 5.0mph /  8km/h 10.0mph /  16.1km/h 61% 0.00in /  0mm
15:59 59.7 °F /  15.4 °C 46.7 °F /  8.2 °C 29.82in /  1009.7hPa South 7.0mph /  11.3km/h 8.0mph /  12.9km/h 62% 0.00in /  0mm
16:04 58.9 °F /  14.9 °C 46.7 °F /  8.2 °C 29.82in /  1009.7hPa SSE 2.0mph /  3.2km/h 7.0mph /  11.3km/h 64% 0.00in /  0mm
16:09 58.5 °F /  14.7 °C 45.9 °F /  7.7 °C 29.81in /  1009.4hPa WSW 3.0mph /  4.8km/h 8.0mph /  12.9km/h 63% 0.00in /  0mm
16:14 58.7 °F /  14.8 °C 47.0 °F /  8.3 °C 29.81in /  1009.4hPa WSW 3.0mph /  4.8km/h 10.0mph /  16.1km/h 65% 0.00in /  0mm
16:19 59.9 °F /  15.5 °C 47.3 °F /  8.5 °C 29.81in /  1009.4hPa SW 5.0mph /  8km/h 10.0mph /  16.1km/h 63% 0.00in /  0mm
16:24 60.3 °F /  15.7 °C 48.1 °F /  8.9 °C 29.81in /  1009.4hPa WSW 4.0mph /  6.4km/h 8.0mph /  12.9km/h 64% 0.00in /  0mm
16:29 60.1 °F /  15.6 °C 46.6 °F /  8.1 °C 29.81in /  1009.4hPa West 5.0mph /  8km/h 9.0mph /  14.5km/h 61% 0.00in /  0mm
16:34 60.0 °F /  15.6 °C 46.1 °F /  7.8 °C 29.81in /  1009.4hPa WSW 5.0mph /  8km/h 10.0mph /  16.1km/h 60% 0.00in /  0mm
16:39 60.0 °F /  15.6 °C 46.1 °F /  7.8 °C 29.81in /  1009.4hPa WSW 5.0mph /  8km/h 10.0mph /  16.1km/h 60% 0.00in /  0mm
16:44 59.9 °F /  15.5 °C 46.8 °F /  8.2 °C 29.81in /  1009.4hPa SW 5.0mph /  8km/h 9.0mph /  14.5km/h 62% 0.00in /  0mm
16:49 60.4 °F /  15.8 °C 46.9 °F /  8.3 °C 29.81in /  1009.4hPa SW 5.0mph /  8km/h 10.0mph /  16.1km/h 61% 0.00in /  0mm
16:54 60.4 °F /  15.8 °C 46.9 °F /  8.3 °C 29.81in /  1009.4hPa SSW 7.0mph /  11.3km/h 11.0mph /  17.7km/h 61% 0.00in /  0mm
16:59 60.4 °F /  15.8 °C 46.0 °F /  7.8 °C 29.81in /  1009.4hPa WSW 5.0mph /  8km/h 10.0mph /  16.1km/h 59% 0.00in /  0mm
17:04 60.2 °F /  15.7 °C 46.3 °F /  7.9 °C 29.81in /  1009.4hPa SW 5.0mph /  8km/h 10.0mph /  16.1km/h 60% 0.00in /  0mm
17:09 60.3 °F /  15.7 °C 45.9 °F /  7.7 °C 29.81in /  1009.4hPa WSW 4.0mph /  6.4km/h 8.0mph /  12.9km/h 59% 0.00in /  0mm
17:14 60.2 °F /  15.7 °C 46.3 °F /  7.9 °C 29.81in /  1009.4hPa SW 5.0mph /  8km/h 8.0mph /  12.9km/h 60% 0.00in /  0mm
17:19 60.2 °F /  15.7 °C 46.7 °F /  8.2 °C 29.81in /  1009.4hPa SSW 3.0mph /  4.8km/h 9.0mph /  14.5km/h 61% 0.00in /  0mm
17:24 60.8 °F /  16 °C 46.8 °F /  8.2 °C 29.81in /  1009.4hPa South 4.0mph /  6.4km/h 8.0mph /  12.9km/h 60% 0.00in /  0mm
17:29 60.9 °F /  16.1 °C 46.5 °F /  8.1 °C 29.81in /  1009.4hPa WSW 5.0mph /  8km/h 8.0mph /  12.9km/h 59% 0.00in /  0mm
17:34 60.6 °F /  15.9 °C 46.2 °F /  7.9 °C 29.81in /  1009.4hPa SW 4.0mph /  6.4km/h 9.0mph /  14.5km/h 59% 0.00in /  0mm
17:39 60.7 °F /  15.9 °C 46.3 °F /  7.9 °C 29.81in /  1009.4hPa SSW 5.0mph /  8km/h 9.0mph /  14.5km/h 59% 0.00in /  0mm
17:44 60.5 °F /  15.8 °C 46.1 °F /  7.8 °C 29.81in /  1009.4hPa SSW 3.0mph /  4.8km/h 8.0mph /  12.9km/h 59% 0.00in /  0mm
17:49 60.3 °F /  15.7 °C 45.5 °F /  7.5 °C 29.81in /  1009.4hPa SW 4.0mph /  6.4km/h 8.0mph /  12.9km/h 58% 0.00in /  0mm
17:54 60.3 °F /  15.7 °C 45.9 °F /  7.7 °C 29.80in /  1009hPa SW 4.0mph /  6.4km/h 6.0mph /  9.7km/h 59% 0.00in /  0mm
17:59 60.2 °F /  15.7 °C 45.4 °F /  7.4 °C 29.80in /  1009hPa SW 5.0mph /  8km/h 9.0mph /  14.5km/h 58% 0.00in /  0mm
18:04 60.0 °F /  15.6 °C 45.6 °F /  7.6 °C 29.81in /  1009.4hPa SW 5.0mph /  8km/h 11.0mph /  17.7km/h 59% 0.00in /  0mm
18:09 59.8 °F /  15.4 °C 45.4 °F /  7.4 °C 29.81in /  1009.4hPa SW 5.0mph /  8km/h 11.0mph /  17.7km/h 59% 0.00in /  0mm
18:14 59.5 °F /  15.3 °C 45.2 °F /  7.3 °C 29.80in /  1009hPa SW 5.0mph /  8km/h 10.0mph /  16.1km/h 59% 0.00in /  0mm
18:19 59.2 °F /  15.1 °C 45.3 °F /  7.4 °C 29.81in /  1009.4hPa SW 5.0mph /  8km/h 10.0mph /  16.1km/h 60% 0.00in /  0mm
18:24 59.0 °F /  15 °C 45.6 °F /  7.6 °C 29.81in /  1009.4hPa WSW 6.0mph /  9.7km/h 7.0mph /  11.3km/h 61% 0.00in /  0mm
18:29 59.0 °F /  15 °C 46.0 °F /  7.8 °C 29.80in /  1009hPa WSW 3.0mph /  4.8km/h 7.0mph /  11.3km/h 62% 0.00in /  0mm
18:34 59.2 °F /  15.1 °C 46.2 °F /  7.9 °C 29.80in /  1009hPa SW 2.0mph /  3.2km/h 7.0mph /  11.3km/h 62% 0.00in /  0mm
18:39 59.3 °F /  15.2 °C 46.3 °F /  7.9 °C 29.80in /  1009hPa West 2.0mph /  3.2km/h 7.0mph /  11.3km/h 62% 0.00in /  0mm
18:44 59.4 °F /  15.2 °C 45.5 °F /  7.5 °C 29.81in /  1009.4hPa SW 5.0mph /  8km/h 10.0mph /  16.1km/h 60% 0.00in /  0mm
18:49 59.1 °F /  15.1 °C 45.7 °F /  7.6 °C 29.81in /  1009.4hPa West 3.0mph /  4.8km/h 10.0mph /  16.1km/h 61% 0.00in /  0mm
18:54 58.7 °F /  14.8 °C 44.8 °F /  7.1 °C 29.81in /  1009.4hPa West 3.0mph /  4.8km/h 12.0mph /  19.3km/h 60% 0.00in /  0mm
18:59 58.1 °F /  14.5 °C 44.7 °F /  7.1 °C 29.80in /  1009hPa WSW 5.0mph /  8km/h 12.0mph /  19.3km/h 61% 0.00in /  0mm
19:04 57.8 °F /  14.3 °C 44.9 °F /  7.2 °C 29.81in /  1009.4hPa WSW 5.0mph /  8km/h 12.0mph /  19.3km/h 62% 0.00in /  0mm
19:09 57.3 °F /  14.1 °C 44.4 °F /  6.9 °C 29.81in /  1009.4hPa WSW 6.0mph /  9.7km/h 12.0mph /  19.3km/h 62% 0.00in /  0mm
19:14 56.9 °F /  13.8 °C 44.4 °F /  6.9 °C 29.81in /  1009.4hPa WSW 5.0mph /  8km/h 11.0mph /  17.7km/h 63% 0.00in /  0mm
19:19 56.6 °F /  13.7 °C 44.6 °F /  7 °C 29.81in /  1009.4hPa SW 4.0mph /  6.4km/h 10.0mph /  16.1km/h 64% 0.00in /  0mm
19:24 56.2 °F /  13.4 °C 44.6 °F /  7 °C 29.80in /  1009hPa SW 2.0mph /  3.2km/h 7.0mph /  11.3km/h 65% 0.00in /  0mm
19:29 56.0 °F /  13.3 °C 44.4 °F /  6.9 °C 29.81in /  1009.4hPa WSW 4.0mph /  6.4km/h 8.0mph /  12.9km/h 65% 0.00in /  0mm
19:34 55.9 °F /  13.3 °C 44.7 °F /  7.1 °C 29.80in /  1009hPa WSW 6.0mph /  9.7km/h 7.0mph /  11.3km/h 66% 0.00in /  0mm
19:39 55.8 °F /  13.2 °C 44.6 °F /  7 °C 29.80in /  1009hPa WSW 5.0mph /  8km/h 7.0mph /  11.3km/h 66% 0.00in /  0mm
19:44 55.8 °F /  13.2 °C 44.6 °F /  7 °C 29.80in /  1009hPa SW 4.0mph /  6.4km/h 6.0mph /  9.7km/h 66% 0.00in /  0mm
19:49 55.9 °F /  13.3 °C 44.7 °F /  7.1 °C 29.81in /  1009.4hPa WSW 1.0mph /  1.6km/h 5.0mph /  8km/h 66% 0.00in /  0mm
19:54 55.8 °F /  13.2 °C 44.6 °F /  7 °C 29.81in /  1009.4hPa SW 3.0mph /  4.8km/h 5.0mph /  8km/h 66% 0.00in /  0mm
19:59 55.8 °F /  13.2 °C 44.6 °F /  7 °C 29.81in /  1009.4hPa WSW 3.0mph /  4.8km/h 5.0mph /  8km/h 66% 0.00in /  0mm
20:04 55.8 °F /  13.2 °C 44.6 °F /  7 °C 29.81in /  1009.4hPa WSW 3.0mph /  4.8km/h 5.0mph /  8km/h 66% 0.00in /  0mm
20:09 55.7 °F /  13.2 °C 44.5 °F /  6.9 °C 29.81in /  1009.4hPa WSW 2.0mph /  3.2km/h 4.0mph /  6.4km/h 66% 0.00in /  0mm
20:14 55.8 °F /  13.2 °C 44.6 °F /  7 °C 29.81in /  1009.4hPa SW 2.0mph /  3.2km/h 6.0mph /  9.7km/h 66% 0.00in /  0mm
20:19 55.7 °F /  13.2 °C 44.5 °F /  6.9 °C 29.80in /  1009hPa WSW 1.0mph /  1.6km/h 5.0mph /  8km/h 66% 0.00in /  0mm
20:24 55.7 °F /  13.2 °C 44.5 °F /  6.9 °C 29.81in /  1009.4hPa Calm   4.0mph /  6.4km/h 66% 0.00in /  0mm
20:29 55.7 °F /  13.2 °C 44.5 °F /  6.9 °C 29.80in /  1009hPa WSW 2.0mph /  3.2km/h 5.0mph /  8km/h 66% 0.00in /  0mm
20:34 55.6 °F /  13.1 °C 44.8 °F /  7.1 °C 29.81in /  1009.4hPa WSW 2.0mph /  3.2km/h 5.0mph /  8km/h 67% 0.00in /  0mm
20:39 55.6 °F /  13.1 °C 44.8 °F /  7.1 °C 29.81in /  1009.4hPa SW 2.0mph /  3.2km/h 5.0mph /  8km/h 67% 0.00in /  0mm
20:44 55.5 °F /  13.1 °C 44.7 °F /  7.1 °C 29.81in /  1009.4hPa Calm   5.0mph /  8km/h 67% 0.00in /  0mm
20:49 55.3 °F /  12.9 °C 44.5 °F /  6.9 °C 29.81in /  1009.4hPa SW 1.0mph /  1.6km/h 4.0mph /  6.4km/h 67% 0.00in /  0mm
20:54 55.2 °F /  12.9 °C 44.4 °F /  6.9 °C 29.81in /  1009.4hPa SW 2.0mph /  3.2km/h 3.0mph /  4.8km/h 67% 0.00in /  0mm
20:59 55.0 °F /  12.8 °C 44.2 °F /  6.8 °C 29.81in /  1009.4hPa SW 1.0mph /  1.6km/h 3.0mph /  4.8km/h 67% 0.00in /  0mm
21:04 54.9 °F /  12.7 °C 44.5 °F /  6.9 °C 29.81in /  1009.4hPa SW 1.0mph /  1.6km/h 3.0mph /  4.8km/h 68% 0.00in /  0mm
21:09 54.7 °F /  12.6 °C 44.3 °F /  6.8 °C 29.81in /  1009.4hPa SW 1.0mph /  1.6km/h 3.0mph /  4.8km/h 68% 0.00in /  0mm
21:14 54.6 °F /  12.6 °C 44.2 °F /  6.8 °C 29.81in /  1009.4hPa Calm   2.0mph /  3.2km/h 68% 0.00in /  0mm
21:19 54.5 °F /  12.5 °C 44.2 °F /  6.8 °C 29.81in /  1009.4hPa Calm   3.0mph /  4.8km/h 68% 0.00in /  0mm
21:24 54.3 °F /  12.4 °C 44.0 °F /  6.7 °C 29.81in /  1009.4hPa SW 3.0mph /  4.8km/h 4.0mph /  6.4km/h 68% 0.00in /  0mm
21:29 54.1 °F /  12.3 °C 44.2 °F /  6.8 °C 29.81in /  1009.4hPa SSW 1.0mph /  1.6km/h 4.0mph /  6.4km/h 69% 0.00in /  0mm
21:34 53.9 °F /  12.2 °C 44.0 °F /  6.7 °C 29.81in /  1009.4hPa SW 2.0mph /  3.2km/h 4.0mph /  6.4km/h 69% 0.00in /  0mm
21:39 53.8 °F /  12.1 °C 44.2 °F /  6.8 °C 29.81in /  1009.4hPa SW 1.0mph /  1.6km/h 4.0mph /  6.4km/h 70% 0.00in /  0mm
21:44 53.6 °F /  12 °C 44.4 °F /  6.9 °C 29.81in /  1009.4hPa Calm   3.0mph /  4.8km/h 71% 0.00in /  0mm
21:49 53.4 °F /  11.9 °C 44.2 °F /  6.8 °C 29.81in /  1009.4hPa SW 1.0mph /  1.6km/h 4.0mph /  6.4km/h 71% 0.00in /  0mm
21:54 53.2 °F /  11.8 °C 44.4 °F /  6.9 °C 29.81in /  1009.4hPa SSW 2.0mph /  3.2km/h 5.0mph /  8km/h 72% 0.00in /  0mm
21:59 53.0 °F /  11.7 °C 44.2 °F /  6.8 °C 29.81in /  1009.4hPa Calm   3.0mph /  4.8km/h 72% 0.00in /  0mm
22:04 52.8 °F /  11.6 °C 44.4 °F /  6.9 °C 29.81in /  1009.4hPa SW 2.0mph /  3.2km/h 4.0mph /  6.4km/h 73% 0.00in /  0mm
22:09 52.7 °F /  11.5 °C 44.3 °F /  6.8 °C 29.81in /  1009.4hPa SW 1.0mph /  1.6km/h 4.0mph /  6.4km/h 73% 0.00in /  0mm
22:14 52.6 °F /  11.4 °C 44.5 °F /  6.9 °C 29.81in /  1009.4hPa WSW 3.0mph /  4.8km/h 3.0mph /  4.8km/h 74% 0.00in /  0mm
22:19 52.4 °F /  11.3 °C 44.4 °F /  6.9 °C 29.80in /  1009hPa WSW 2.0mph /  3.2km/h 3.0mph /  4.8km/h 74% 0.00in /  0mm
22:24 52.4 °F /  11.3 °C 44.7 °F /  7.1 °C 29.80in /  1009hPa WSW 1.0mph /  1.6km/h 3.0mph /  4.8km/h 75% 0.00in /  0mm
22:29 52.3 °F /  11.3 °C 44.6 °F /  7 °C 29.79in /  1008.7hPa SSW 2.0mph /  3.2km/h 5.0mph /  8km/h 75% 0.00in /  0mm
22:34 52.2 °F /  11.2 °C 44.5 °F /  6.9 °C 29.78in /  1008.4hPa SSW 2.0mph /  3.2km/h 6.0mph /  9.7km/h 75% 0.00in /  0mm
22:39 52.0 °F /  11.1 °C 44.7 °F /  7.1 °C 29.78in /  1008.4hPa South 3.0mph /  4.8km/h 7.0mph /  11.3km/h 76% 0.00in /  0mm
22:44 52.0 °F /  11.1 °C 45.0 °F /  7.2 °C 29.77in /  1008hPa South 3.0mph /  4.8km/h 7.0mph /  11.3km/h 77% 0.00in /  0mm
22:49 52.1 °F /  11.2 °C 45.1 °F /  7.3 °C 29.78in /  1008.4hPa SSW 3.0mph /  4.8km/h 7.0mph /  11.3km/h 77% 0.00in /  0mm
22:54 52.1 °F /  11.2 °C 45.1 °F /  7.3 °C 29.78in /  1008.4hPa SSW 1.0mph /  1.6km/h 5.0mph /  8km/h 77% 0.00in /  0mm
22:59 52.1 °F /  11.2 °C 45.1 °F /  7.3 °C 29.78in /  1008.4hPa Calm   4.0mph /  6.4km/h 77% 0.00in /  0mm
23:04 52.2 °F /  11.2 °C 45.2 °F /  7.3 °C 29.78in /  1008.4hPa Calm   3.0mph /  4.8km/h 77% 0.00in /  0mm
23:09 52.2 °F /  11.2 °C 45.2 °F /  7.3 °C 29.78in /  1008.4hPa Calm   3.0mph /  4.8km/h 77% 0.00in /  0mm
23:14 52.1 °F /  11.2 °C 45.1 °F /  7.3 °C 29.78in /  1008.4hPa SSW 1.0mph /  1.6km/h 3.0mph /  4.8km/h 77% 0.00in /  0mm
23:19 52.0 °F /  11.1 °C 45.0 °F /  7.2 °C 29.78in /  1008.4hPa Calm   2.0mph /  3.2km/h 77% 0.00in /  0mm
23:24 51.9 °F /  11.1 °C 44.6 °F /  7 °C 29.78in /  1008.4hPa Calm   2.0mph /  3.2km/h 76% 0.00in /  0mm
23:29 51.8 °F /  11 °C 44.5 °F /  6.9 °C 29.78in /  1008.4hPa Calm   1.0mph /  1.6km/h 76% 0.00in /  0mm
23:34 51.5 °F /  10.8 °C 44.2 °F /  6.8 °C 29.78in /  1008.4hPa Calm     76% 0.00in /  0mm
23:39 51.3 °F /  10.7 °C 44.0 °F /  6.7 °C 29.78in /  1008.4hPa Calm     76% 0.00in /  0mm
23:44 51.0 °F /  10.6 °C 43.7 °F /  6.5 °C 29.78in /  1008.4hPa Calm     76% 0.00in /  0mm
23:49 50.8 °F /  10.4 °C 43.8 °F /  6.6 °C 29.78in /  1008.4hPa Calm     77% 0.00in /  0mm
23:54 50.6 °F /  10.3 °C 43.7 °F /  6.5 °C 29.78in /  1008.4hPa Calm   2.0mph /  3.2km/h 77% 0.00in /  0mm
23:59 50.4 °F /  10.2 °C 43.5 °F /  6.4 °C 29.78in /  1008.4hPa Calm   2.0mph /  3.2km/h 77% 0.00in /  0mm
Buffalo, New York, USA
Compliments of Weather Underground - 2.5 mb